createdAt,value
2022-08-07T00:01:12.653Z,96864.03
2022-08-07T00:03:48.919Z,96863.59
2022-08-07T00:06:15.379Z,96864.00
2022-08-07T00:08:44.315Z,96853.59
2022-08-07T00:11:11.007Z,96845.13
2022-08-07T00:13:40.537Z,96843.63
2022-08-07T00:16:11.313Z,96838.59
2022-08-07T00:18:43.779Z,96837.41
2022-08-07T00:21:57.101Z,96831.28
2022-08-07T00:23:56.805Z,96835.50
2022-08-07T00:26:49.233Z,96828.25
2022-08-07T00:29:09.594Z,96827.44
2022-08-07T00:31:42.076Z,96823.63
2022-08-07T00:34:09.437Z,96825.50
2022-08-07T00:36:36.113Z,96826.34
2022-08-07T00:39:05.183Z,96819.78
2022-08-07T00:41:31.654Z,96810.50
2022-08-07T00:44:03.756Z,96817.44
2022-08-07T00:46:30.174Z,96819.72
2022-08-07T00:48:59.342Z,96815.91
2022-08-07T00:51:57.071Z,96813.19
2022-08-07T00:54:15.006Z,96813.63
2022-08-07T00:56:46.004Z,96810.16
2022-08-07T00:59:16.396Z,96806.31
2022-08-07T01:01:44.498Z,96809.00
2022-08-07T01:04:11.278Z,96806.69
2022-08-07T01:06:48.214Z,96800.88
2022-08-07T01:10:02.405Z,96803.97
2022-08-07T01:12:23.797Z,96802.47
2022-08-07T01:14:47.420Z,96807.09
2022-08-07T01:17:23.368Z,96802.47
2022-08-07T01:19:54.159Z,96795.56
2022-08-07T01:22:22.885Z,96804.41
2022-08-07T01:24:55.710Z,96800.19
2022-08-07T01:27:22.271Z,96791.69
2022-08-07T01:29:48.679Z,96800.56
2022-08-07T01:32:17.142Z,96797.88
2022-08-07T01:34:47.402Z,96802.47
2022-08-07T01:37:15.727Z,96795.94
2022-08-07T01:39:46.730Z,96802.50
2022-08-07T01:42:38.842Z,96800.97
2022-08-07T01:44:59.931Z,96808.22
2022-08-07T01:48:29.896Z,96806.38
2022-08-07T01:50:13.165Z,96811.38
2022-08-07T01:52:49.647Z,96803.66
2022-08-07T01:55:22.375Z,96805.59
2022-08-07T01:58:06.136Z,96809.06
2022-08-07T02:00:38.777Z,96805.97
2022-08-07T02:03:22.047Z,96814.84
2022-08-07T02:05:59.351Z,96814.47
2022-08-07T02:08:26.536Z,96816.41
2022-08-07T02:10:55.249Z,96809.47
2022-08-07T02:13:21.935Z,96820.66
2022-08-07T02:16:08.335Z,96807.91
2022-08-07T02:18:38.447Z,96807.56
2022-08-07T02:21:16.128Z,96804.41
2022-08-07T02:23:42.988Z,96804.81
2022-08-07T02:26:32.969Z,96814.06
2022-08-07T02:28:57.547Z,96804.47
2022-08-07T02:31:29.007Z,96808.69
2022-08-07T02:34:01.857Z,96795.59
2022-08-07T02:36:32.965Z,96801.78
2022-08-07T02:38:59.714Z,96802.91
2022-08-07T02:41:26.183Z,96792.91
2022-08-07T02:44:03.472Z,96794.84
2022-08-07T02:46:31.543Z,96786.34
2022-08-07T02:48:58.140Z,96792.94
2022-08-07T02:51:41.937Z,96790.22
2022-08-07T02:54:09.428Z,96786.34
2022-08-07T02:56:35.837Z,96789.06
2022-08-07T02:59:02.332Z,96786.75
2022-08-07T03:01:36.393Z,96782.53
2022-08-07T03:04:07.543Z,96781.31
2022-08-07T03:06:34.813Z,96788.28
2022-08-07T03:09:01.354Z,96781.75
2022-08-07T03:11:28.207Z,96777.13
2022-08-07T03:13:57.704Z,96773.28
2022-08-07T03:16:28.334Z,96767.84
2022-08-07T03:18:56.851Z,96771.34
2022-08-07T03:21:23.336Z,96772.50
2022-08-07T03:24:20.897Z,96767.88
2022-08-07T03:26:36.124Z,96762.91
2022-08-07T03:29:17.448Z,96765.97
2022-08-07T03:31:46.208Z,96754.03
2022-08-07T03:34:18.854Z,96760.59
2022-08-07T03:36:48.845Z,96760.94
2022-08-07T03:39:15.267Z,96758.66
2022-08-07T03:41:47.621Z,96760.16
2022-08-07T03:44:31.737Z,96767.50
2022-08-07T03:47:10.981Z,96763.28
2022-08-07T03:49:40.696Z,96765.22
2022-08-07T03:52:07.443Z,96763.28
2022-08-07T03:54:54.791Z,96757.50
2022-08-07T03:58:32.481Z,96757.88
2022-08-07T04:00:08.168Z,96755.97
2022-08-07T04:02:36.981Z,96755.56
2022-08-07T04:05:07.839Z,96754.84
2022-08-07T04:07:41.830Z,96750.97
2022-08-07T04:10:15.318Z,96748.25
2022-08-07T04:12:42.250Z,96752.13
2022-08-07T04:15:08.643Z,96754.44
2022-08-07T04:18:11.276Z,96756.38
2022-08-07T04:20:25.365Z,96755.56
2022-08-07T04:22:53.339Z,96757.88
2022-08-07T04:25:20.272Z,96756.75
2022-08-07T04:27:59.131Z,96761.75
2022-08-07T04:30:44.043Z,96761.75
2022-08-07T04:33:15.457Z,96760.59
2022-08-07T04:35:42.182Z,96768.66
2022-08-07T04:38:08.640Z,96764.44
2022-08-07T04:40:35.168Z,96772.16
2022-08-07T04:43:03.468Z,96771.38
2022-08-07T04:45:57.316Z,96774.09
2022-08-07T04:48:16.782Z,96774.88
2022-08-07T04:50:43.478Z,96786.81
2022-08-07T04:53:39.932Z,96795.66
2022-08-07T04:58:12.325Z,96792.56
2022-08-07T05:01:38.387Z,96795.66
2022-08-07T05:04:08.575Z,96799.94
2022-08-07T05:06:43.187Z,96799.53
2022-08-07T05:09:10.393Z,96799.53
2022-08-07T05:11:57.658Z,96798.00
2022-08-07T05:14:56.077Z,96799.13
2022-08-07T05:17:12.210Z,96801.09
2022-08-07T05:19:44.714Z,96803.00
2022-08-07T05:22:11.661Z,96809.91
2022-08-07T05:24:40.637Z,96804.53
2022-08-07T05:27:07.230Z,96803.41
2022-08-07T05:29:51.185Z,96798.41
2022-08-07T05:32:20.122Z,96805.72
2022-08-07T05:34:46.904Z,96797.63
2022-08-07T05:37:13.328Z,96799.91
2022-08-07T05:40:06.393Z,96803.38
2022-08-07T05:42:39.177Z,96803.00
2022-08-07T05:45:14.671Z,96799.53
2022-08-07T05:48:01.157Z,96806.47
2022-08-07T05:50:28.682Z,96807.25
2022-08-07T05:52:55.096Z,96814.56
2022-08-07T05:55:21.646Z,96813.00
2022-08-07T05:57:49.340Z,96814.16
2022-08-07T06:00:17.876Z,96812.25
2022-08-07T06:02:44.392Z,96815.00
2022-08-07T06:05:15.786Z,96821.56
2022-08-07T06:08:14.725Z,96823.84
2022-08-07T06:10:28.838Z,96826.91
2022-08-07T06:12:55.811Z,96834.63
2022-08-07T06:15:22.211Z,96835.03
2022-08-07T06:18:05.975Z,96839.63
2022-08-07T06:20:50.546Z,96840.03
2022-08-07T06:23:46.068Z,96845.41
2022-08-07T06:26:05.156Z,96842.72
2022-08-07T06:28:33.540Z,96834.25
2022-08-07T06:30:59.933Z,96837.34
2022-08-07T06:33:26.442Z,96832.69
2022-08-07T06:36:12.020Z,96835.78
2022-08-07T06:38:39.252Z,96826.53
2022-08-07T06:41:58.759Z,96838.44
2022-08-07T06:44:12.022Z,96840.00
2022-08-07T06:46:39.985Z,96840.41
2022-08-07T06:49:06.448Z,96834.22
2022-08-07T06:51:33.838Z,96833.44
2022-08-07T06:55:30.084Z,96833.84
2022-08-07T06:56:48.896Z,96830.78
2022-08-07T07:00:12.532Z,96829.25
2022-08-07T07:02:02.743Z,96822.31
2022-08-07T07:04:32.838Z,96821.16
2022-08-07T07:07:01.714Z,96829.22
2022-08-07T07:09:31.322Z,96827.31
2022-08-07T07:12:08.256Z,96827.66
2022-08-07T07:14:43.133Z,96827.69
2022-08-07T07:17:16.135Z,96841.53
2022-08-07T07:19:56.340Z,96822.28
2022-08-07T07:22:37.000Z,96821.53
2022-08-07T07:26:30.758Z,96828.47
2022-08-07T07:28:02.540Z,96824.63
2022-08-07T07:30:38.561Z,96819.22
2022-08-07T07:33:06.615Z,96821.53
2022-08-07T07:35:51.897Z,96824.22
2022-08-07T07:38:20.713Z,96821.13
2022-08-07T07:40:47.896Z,96816.91
2022-08-07T07:43:18.364Z,96818.47
2022-08-07T07:46:37.565Z,96822.28
2022-08-07T07:48:35.735Z,96821.13
2022-08-07T07:51:02.752Z,96821.91
2022-08-07T07:53:34.911Z,96821.16
2022-08-07T07:56:01.478Z,96820.78
2022-08-07T07:58:27.956Z,96826.56
2022-08-07T08:00:54.429Z,96814.19
2022-08-07T08:04:10.610Z,96817.72
2022-08-07T08:06:08.136Z,96815.38
2022-08-07T08:08:41.917Z,96814.63
2022-08-07T08:11:13.501Z,96813.47
2022-08-07T08:13:54.271Z,96810.75
2022-08-07T08:16:25.284Z,96802.66
2022-08-07T08:18:51.829Z,96824.25
2022-08-07T08:21:18.250Z,96813.06
2022-08-07T08:23:45.642Z,96808.81
2022-08-07T08:26:12.626Z,96808.06
2022-08-07T08:28:44.762Z,96808.06
2022-08-07T08:31:15.759Z,96819.22
2022-08-07T08:33:49.071Z,96815.75
2022-08-07T08:36:16.491Z,96819.59
2022-08-07T08:38:42.912Z,96816.53
2022-08-07T08:41:11.977Z,96814.59
2022-08-07T08:43:42.137Z,96816.88
2022-08-07T08:46:09.708Z,96813.47
2022-08-07T08:48:38.560Z,96815.75
2022-08-07T08:51:14.614Z,96811.91
2022-08-07T08:53:51.478Z,96819.22
2022-08-07T08:56:17.900Z,96804.56
2022-08-07T08:58:50.692Z,96806.50
2022-08-07T09:01:21.138Z,96811.13
2022-08-07T09:03:52.979Z,96814.19
2022-08-07T09:06:21.631Z,96808.81
2022-08-07T09:08:48.036Z,96813.03
2022-08-07T09:11:24.430Z,96806.88
2022-08-07T09:14:01.768Z,96805.34
2022-08-07T09:16:30.138Z,96800.34
2022-08-07T09:18:58.558Z,96809.56
2022-08-07T09:21:57.960Z,96815.72
2022-08-07T09:24:32.197Z,96806.09
2022-08-07T09:26:58.679Z,96811.84
2022-08-07T09:30:06.000Z,96811.09
2022-08-07T09:32:18.988Z,96814.19
2022-08-07T09:34:53.655Z,96811.84
2022-08-07T09:37:20.529Z,96819.94
2022-08-07T09:40:00.448Z,96812.63
2022-08-07T09:42:30.381Z,96817.25
2022-08-07T09:47:51.294Z,96812.63
2022-08-07T09:48:00.423Z,96816.47
2022-08-07T09:50:30.708Z,96811.47
2022-08-07T09:53:00.132Z,96809.94
2022-08-07T09:55:36.995Z,96807.63
2022-08-07T09:58:16.677Z,96807.25
2022-08-07T10:00:44.901Z,96807.25
2022-08-07T10:04:05.498Z,96800.72
2022-08-07T10:06:04.360Z,96802.69
2022-08-07T10:08:34.486Z,96801.16
2022-08-07T10:11:17.064Z,96806.16
2022-08-07T10:14:00.686Z,96806.13
2022-08-07T10:16:29.012Z,96809.59
2022-08-07T10:18:56.927Z,96808.44
2022-08-07T10:22:14.634Z,96801.91
2022-08-07T10:24:18.653Z,96799.19
2022-08-07T10:26:53.366Z,96803.41
2022-08-07T10:29:20.073Z,96796.09
2022-08-07T10:31:49.591Z,96793.81
2022-08-07T10:34:18.065Z,96796.50
2022-08-07T10:36:45.543Z,96793.03
2022-08-07T10:39:14.080Z,96789.56
2022-08-07T10:41:46.372Z,96788.78
2022-08-07T10:44:14.597Z,96783.00
2022-08-07T10:46:41.022Z,96791.13
2022-08-07T10:49:07.797Z,96788.00
2022-08-07T10:51:57.751Z,96784.56
2022-08-07T10:54:21.696Z,96784.56
2022-08-07T10:56:48.180Z,96785.31
2022-08-07T10:59:15.637Z,96784.94
2022-08-07T11:01:51.908Z,96779.91
2022-08-07T11:04:34.908Z,96773.00
2022-08-07T11:07:04.262Z,96784.91
2022-08-07T11:10:08.797Z,96784.91
2022-08-07T11:12:32.051Z,96775.69
2022-08-07T11:14:59.802Z,96774.19
2022-08-07T11:17:43.450Z,96778.75
2022-08-07T11:20:12.288Z,96771.47
2022-08-07T11:22:46.016Z,96773.00
2022-08-07T11:25:12.748Z,96769.53
2022-08-07T11:28:03.172Z,96773.38
2022-08-07T11:30:41.880Z,96764.13
2022-08-07T11:33:14.180Z,96764.16
2022-08-07T11:35:59.650Z,96767.22
2022-08-07T11:38:28.174Z,96762.22
2022-08-07T11:40:54.846Z,96761.81
2022-08-07T11:43:29.822Z,96762.59
2022-08-07T11:46:08.930Z,96758.38
2022-08-07T11:48:35.860Z,96757.19
2022-08-07T11:51:04.032Z,96766.03
2022-08-07T11:53:36.121Z,96759.13
2022-08-07T11:56:15.503Z,96757.56
2022-08-07T11:58:49.739Z,96761.81
2022-08-07T12:01:20.192Z,96761.03
2022-08-07T12:03:48.676Z,96760.28
2022-08-07T12:06:37.101Z,96765.69
2022-08-07T12:09:01.558Z,96762.59
2022-08-07T12:11:32.482Z,96761.44
2022-08-07T12:13:59.100Z,96760.28
2022-08-07T12:16:30.104Z,96764.13
2022-08-07T12:18:57.308Z,96760.25
2022-08-07T12:21:55.987Z,96763.34
2022-08-07T12:24:37.103Z,96757.19
2022-08-07T12:26:56.498Z,96757.56
2022-08-07T12:29:38.003Z,96749.16
2022-08-07T12:32:12.093Z,96751.84
2022-08-07T12:34:39.144Z,96758.34
2022-08-07T12:37:08.814Z,96746.06
2022-08-07T12:39:50.858Z,96747.19
2022-08-07T12:42:17.845Z,96738.69
2022-08-07T12:44:53.835Z,96740.63
2022-08-07T12:47:27.123Z,96741.78
2022-08-07T12:50:00.435Z,96745.25
2022-08-07T12:52:34.083Z,96745.25
2022-08-07T12:55:05.264Z,96750.66
2022-08-07T12:57:39.206Z,96750.66
2022-08-07T13:00:26.088Z,96743.69
2022-08-07T13:02:59.509Z,96745.63
2022-08-07T13:06:03.743Z,96734.47
2022-08-07T13:08:19.186Z,96736.75
2022-08-07T13:10:52.285Z,96731.00
2022-08-07T13:13:48.046Z,96737.16
2022-08-07T13:16:05.389Z,96729.44
2022-08-07T13:18:34.182Z,96721.00
2022-08-07T13:21:00.855Z,96732.53
2022-08-07T13:24:01.086Z,96714.81
2022-08-07T13:26:16.045Z,96719.06
2022-08-07T13:28:44.835Z,96706.72
2022-08-07T13:31:13.208Z,96718.66
2022-08-07T13:34:31.693Z,96713.69
2022-08-07T13:36:26.504Z,96712.88
2022-08-07T13:38:54.454Z,96709.03
2022-08-07T13:41:21.157Z,96710.97
2022-08-07T13:43:52.550Z,96702.50
2022-08-07T13:46:28.255Z,96694.41
2022-08-07T13:48:59.412Z,96694.78
2022-08-07T13:51:28.099Z,96685.91
2022-08-07T13:54:16.459Z,96684.00
2022-08-07T13:56:55.521Z,96698.66
2022-08-07T13:59:22.565Z,96689.78
2022-08-07T14:01:51.016Z,96682.84
2022-08-07T14:04:36.766Z,96675.91
2022-08-07T14:07:04.530Z,96681.75
2022-08-07T14:10:01.279Z,96689.06
2022-08-07T14:12:20.801Z,96670.91
2022-08-07T14:14:53.900Z,96663.56
2022-08-07T14:18:12.887Z,96662.78
2022-08-07T14:20:42.976Z,96669.38
2022-08-07T14:22:53.112Z,96666.28
2022-08-07T14:25:22.412Z,96669.31
2022-08-07T14:28:10.273Z,96676.31
2022-08-07T14:30:35.796Z,96669.00
2022-08-07T14:33:07.158Z,96667.06
2022-08-07T14:35:43.335Z,96663.22
2022-08-07T14:38:26.696Z,96660.50
2022-08-07T14:40:57.928Z,96673.19
2022-08-07T14:46:10.884Z,96671.66
2022-08-07T14:48:43.870Z,96655.88
2022-08-07T14:51:15.765Z,96659.34
2022-08-07T14:56:29.945Z,96652.41
2022-08-07T14:58:56.981Z,96658.19
2022-08-07T15:01:23.390Z,96657.03
2022-08-07T15:03:52.268Z,96660.06
2022-08-07T15:06:19.608Z,96665.47
2022-08-07T15:08:50.190Z,96661.63
2022-08-07T15:11:53.742Z,96658.16
2022-08-07T15:14:10.090Z,96645.06
2022-08-07T15:16:37.220Z,96668.16
2022-08-07T15:19:03.635Z,96668.94
2022-08-07T15:21:45.071Z,96661.56
2022-08-07T15:25:13.546Z,96653.91
2022-08-07T15:27:06.378Z,96651.19
2022-08-07T15:30:09.921Z,96660.06
2022-08-07T15:32:38.953Z,96657.72
2022-08-07T15:35:05.585Z,96660.81
2022-08-07T15:38:04.830Z,96651.16
2022-08-07T15:40:34.456Z,96652.72
2022-08-07T15:43:01.660Z,96648.09
2022-08-07T15:48:14.843Z,96655.75
2022-08-07T15:53:42.184Z,96666.16
2022-08-07T15:56:19.092Z,96655.38
2022-08-07T15:58:45.487Z,96656.47
2022-08-07T16:01:20.334Z,96657.28
2022-08-07T16:03:57.383Z,96661.88
2022-08-07T16:06:24.927Z,96659.91
2022-08-07T16:08:52.945Z,96654.59
2022-08-07T16:11:27.095Z,96649.56
2022-08-07T16:13:59.439Z,96654.16
2022-08-07T16:16:43.197Z,96656.81
2022-08-07T16:19:13.181Z,96643.34
2022-08-07T16:22:01.384Z,96647.94
2022-08-07T16:24:34.286Z,96642.94
2022-08-07T16:27:01.876Z,96649.88
2022-08-07T16:30:10.773Z,96652.94
2022-08-07T16:32:34.432Z,96646.75
2022-08-07T16:35:01.099Z,96652.53
2022-08-07T16:38:06.804Z,96646.75
2022-08-07T16:40:28.200Z,96644.84
2022-08-07T16:42:57.110Z,96648.69
2022-08-07T16:46:47.444Z,96647.19
2022-08-07T16:48:13.677Z,96654.81
2022-08-07T16:50:52.686Z,96649.13
2022-08-07T16:54:01.412Z,96660.63
2022-08-07T16:56:05.853Z,96663.75
2022-08-07T16:58:54.380Z,96666.03
2022-08-07T17:01:18.690Z,96663.38
2022-08-07T17:03:58.029Z,96664.91
2022-08-07T17:06:31.124Z,96664.16
2022-08-07T17:09:09.140Z,96659.75
2022-08-07T17:12:01.450Z,96669.84
2022-08-07T17:14:23.841Z,96676.38
2022-08-07T17:16:55.648Z,96677.19
2022-08-07T17:20:01.095Z,96677.94
2022-08-07T17:22:10.625Z,96677.88
2022-08-07T17:24:37.117Z,96673.72
2022-08-07T17:27:03.551Z,96661.75
2022-08-07T17:30:14.355Z,96674.47
2022-08-07T17:32:30.464Z,96675.97
2022-08-07T17:35:51.603Z,96667.47
2022-08-07T17:38:06.571Z,96663.56
2022-08-07T17:40:31.170Z,96670.56
2022-08-07T17:42:59.897Z,96667.47
2022-08-07T17:45:26.710Z,96665.50
2022-08-07T17:47:54.365Z,96670.50
2022-08-07T17:50:20.903Z,96675.91
2022-08-07T17:52:47.304Z,96676.63
2022-08-07T17:55:14.418Z,96678.16
2022-08-07T17:58:01.862Z,96677.41
2022-08-07T18:00:34.553Z,96682.84
2022-08-07T18:03:18.227Z,96679.09
2022-08-07T18:06:02.910Z,96691.03
2022-08-07T18:08:31.492Z,96691.38
2022-08-07T18:12:07.416Z,96691.00
2022-08-07T18:13:44.296Z,96698.31
2022-08-07T18:16:12.041Z,96695.25
2022-08-07T18:21:01.359Z,96696.38
2022-08-07T18:21:53.411Z,96705.66
2022-08-07T18:24:11.971Z,96706.78
2022-08-07T18:27:01.107Z,96701.41
2022-08-07T18:30:07.142Z,96702.97
2022-08-07T18:32:14.114Z,96693.72
2022-08-07T18:35:00.808Z,96693.34
2022-08-07T18:38:59.651Z,96715.31
2022-08-07T18:40:17.977Z,96707.22
2022-08-07T18:43:00.915Z,96710.25
2022-08-07T18:45:44.399Z,96718.34
2022-08-07T18:50:19.460Z,96719.94
2022-08-07T18:51:00.105Z,96731.13
2022-08-07T18:53:39.231Z,96733.06
2022-08-07T18:56:06.192Z,96743.81
2022-08-07T18:58:32.734Z,96745.00
2022-08-07T19:01:00.935Z,96748.47
2022-08-07T19:03:37.962Z,96757.72
2022-08-07T19:06:05.259Z,96751.94
2022-08-07T19:08:31.924Z,96761.97
2022-08-07T19:10:59.129Z,96755.06
2022-08-07T19:13:25.550Z,96765.09
2022-08-07T19:16:05.929Z,96747.34
2022-08-07T19:18:44.924Z,96752.38
2022-08-07T19:21:42.770Z,96755.84
2022-08-07T19:24:00.307Z,96759.69
2022-08-07T19:26:29.291Z,96757.03
2022-08-07T19:30:56.495Z,96758.53
2022-08-07T19:32:10.346Z,96766.66
2022-08-07T19:34:34.530Z,96763.25
2022-08-07T19:37:09.680Z,96759.34
2022-08-07T19:39:56.910Z,96760.09
2022-08-07T19:42:25.244Z,96775.09
2022-08-07T19:44:51.740Z,96764.31
2022-08-07T19:47:18.139Z,96775.53
2022-08-07T19:49:58.020Z,96778.91
2022-08-07T19:52:29.300Z,96768.53
2022-08-07T19:54:57.196Z,96765.47
2022-08-07T19:57:51.257Z,96771.22
2022-08-07T20:00:10.585Z,96767.38
2022-08-07T20:02:39.241Z,96771.25
2022-08-07T20:05:08.041Z,96766.28
2022-08-07T20:07:45.880Z,96763.16
2022-08-07T20:10:36.107Z,96759.34
2022-08-07T20:12:59.774Z,96766.25
2022-08-07T20:15:27.801Z,96755.44
2022-08-07T20:18:03.564Z,96747.75
2022-08-07T20:20:30.754Z,96751.94
2022-08-07T20:22:57.182Z,96758.81
2022-08-07T20:25:23.595Z,96750.72
2022-08-07T20:27:57.932Z,96754.94
2022-08-07T20:30:25.147Z,96753.06
2022-08-07T20:32:51.873Z,96757.28
2022-08-07T20:35:21.926Z,96753.06
2022-08-07T20:37:59.001Z,96756.16
2022-08-07T20:40:33.333Z,96755.00
2022-08-07T20:43:01.022Z,96759.25
2022-08-07T20:45:32.998Z,96761.47
2022-08-07T20:48:28.834Z,96773.84
2022-08-07T20:50:56.829Z,96774.66
2022-08-07T20:53:25.824Z,96779.69
2022-08-07T20:56:10.559Z,96777.31
2022-08-07T20:58:36.959Z,96773.03
2022-08-07T21:01:04.877Z,96769.94
2022-08-07T21:03:31.501Z,96764.91
2022-08-07T21:06:01.267Z,96763.75
2022-08-07T21:08:37.323Z,96766.44
2022-08-07T21:11:05.492Z,96762.97
2022-08-07T21:13:57.378Z,96769.56
2022-08-07T21:16:23.431Z,96760.66
2022-08-07T21:18:53.255Z,96753.72
2022-08-07T21:21:19.805Z,96759.13
2022-08-07T21:23:53.598Z,96752.94
2022-08-07T21:26:20.003Z,96762.16
2022-08-07T21:28:50.917Z,96758.34
2022-08-07T21:31:17.645Z,96753.34
2022-08-07T21:33:58.008Z,96751.03
2022-08-07T21:36:31.274Z,96751.78
2022-08-07T21:38:59.089Z,96753.72
2022-08-07T21:41:26.417Z,96753.41
2022-08-07T21:43:56.090Z,96753.41
2022-08-07T21:46:25.165Z,96745.41
2022-08-07T21:48:58.393Z,96747.25
2022-08-07T21:51:25.787Z,96748.03
2022-08-07T21:53:53.567Z,96750.38
2022-08-07T21:56:35.839Z,96747.31
2022-08-07T21:59:03.203Z,96746.94
2022-08-07T22:02:07.043Z,96752.31
2022-08-07T22:04:20.220Z,96750.03
2022-08-07T22:06:49.729Z,96746.22
2022-08-07T22:09:16.375Z,96750.09
2022-08-07T22:12:05.144Z,96753.53
2022-08-07T22:14:34.936Z,96764.34
2022-08-07T22:17:04.098Z,96760.91
2022-08-07T22:19:30.614Z,96761.28
2022-08-07T22:22:02.570Z,96751.25
2022-08-07T22:24:37.602Z,96755.09
2022-08-07T22:27:04.009Z,96758.56
2022-08-07T22:29:38.025Z,96757.03
2022-08-07T22:32:20.393Z,96762.09
2022-08-07T22:34:49.709Z,96763.59
2022-08-07T22:37:19.975Z,96759.78
2022-08-07T22:39:52.498Z,96754.00
2022-08-07T22:42:26.077Z,96755.16
2022-08-07T22:45:10.916Z,96758.22
2022-08-07T22:47:52.600Z,96761.28
2022-08-07T22:50:20.409Z,96760.13
2022-08-07T22:52:47.594Z,96750.53
2022-08-07T22:55:17.561Z,96754.75
2022-08-07T22:57:49.196Z,96756.28
2022-08-07T23:00:16.340Z,96760.94
2022-08-07T23:02:43.119Z,96760.53
2022-08-07T23:06:06.805Z,96756.69
2022-08-07T23:07:57.269Z,96762.09
2022-08-07T23:10:36.451Z,96759.78
2022-08-07T23:13:04.978Z,96754.41
2022-08-07T23:16:07.386Z,96757.84
2022-08-07T23:18:17.985Z,96750.94
2022-08-07T23:20:53.162Z,96759.41
2022-08-07T23:24:06.251Z,96757.50
2022-08-07T23:26:06.514Z,96764.03
2022-08-07T23:28:32.932Z,96764.41
2022-08-07T23:31:07.017Z,96765.97
2022-08-07T23:34:34.332Z,96769.41
2022-08-07T23:36:28.960Z,96766.34
2022-08-07T23:38:56.119Z,96764.03
2022-08-07T23:41:22.666Z,96768.66
2022-08-07T23:43:59.555Z,96768.66
2022-08-07T23:46:27.320Z,96770.59
2022-08-07T23:48:53.843Z,96765.22
2022-08-07T23:52:59.746Z,96762.50
2022-08-07T23:54:19.535Z,96765.94
2022-08-07T23:56:54.976Z,96761.75
